Time;durP1;ratioP1;P1;durP2;ratioP2;P2;SDS_P1;SDS_P2;PMS_P1;PMS_P2;Temp;Humidity;BMP_temperature;BMP_pressure;BME280_temperature;BME280_humidity;BME280_pressure;Samples;Min_cycle;Max_cycle;Signal;HPM_P1;HPM_P2
2022/08/09 00:01:56;;;;;;;;;;;24.40;33.00;;;22.64;33.59;102157.19;12250367;19;19921;-88
2022/08/09 00:05:57;;;;;;;;;;;24.30;32.90;;;22.58;33.62;102148.88;12253527;19;19926;-89
2022/08/09 00:09:59;;;;;;;;;;;24.40;33.00;;;22.69;33.91;102162.97;12251641;19;20368;-89
2022/08/09 00:14:01;;;;;;;;;;;24.40;33.00;;;22.79;34.04;102176.38;12252055;19;19919;-89
2022/08/09 00:18:02;;;;;;;;;;;24.40;33.00;;;22.75;33.74;102170.44;12252716;19;19922;-89
2022/08/09 00:22:04;;;;;;;;;;;24.50;33.10;;;22.71;34.05;102161.03;12250409;19;19926;-89
2022/08/09 00:26:06;;;;;;;;;;;24.50;33.10;;;22.81;33.90;102165.56;12251420;19;19906;-89
2022/08/09 00:30:08;;;;;;;;;;;24.50;33.10;;;22.75;34.21;102149.13;12251225;19;19936;-89
2022/08/09 00:34:10;;;;;;;;;;;24.50;33.10;;;22.74;34.20;102165.25;12251753;19;19911;-89
2022/08/09 00:38:11;;;;;;;;;;;24.60;33.20;;;22.80;33.89;102167.41;12250323;19;19927;-88
2022/08/09 00:42:13;;;;;;;;;;;24.60;33.10;;;22.73;34.01;102161.72;12249391;19;19907;-88
2022/08/09 00:46:14;;;;;;;;;;;24.50;33.00;;;22.67;33.93;102158.75;12251054;19;19926;-88
2022/08/09 00:50:16;;;;;;;;;;;24.50;33.00;;;22.57;34.08;102144.50;12249952;19;19946;-89
2022/08/09 00:54:18;;;;;;;;;;;24.50;33.10;;;22.68;34.19;102177.28;12249387;19;19918;-89
2022/08/09 00:58:19;;;;;;;;;;;24.40;33.00;;;22.54;34.04;102156.25;12249881;19;19931;-89
2022/08/09 01:02:23;;;;;;;;;;;24.40;33.20;;;22.45;34.16;102155.22;12247651;19;19914;-89
2022/08/09 01:06:47;;;;;;;;;;;24.40;33.20;;;22.56;34.24;102162.31;12251000;19;19944;-89
2022/08/09 01:11:20;;;;;;;;;;;24.30;33.20;;;22.42;34.21;102150.16;12245143;19;19919;-89
2022/08/09 01:15:26;;;;;;;;;;;24.20;33.10;;;22.37;34.57;102152.34;12250233;19;19942;-89
2022/08/09 01:19:39;;;;;;;;;;;24.20;33.30;;;22.41;34.24;102156.41;12249104;19;20238;-89
2022/08/09 01:24:03;;;;;;;;;;;24.20;33.30;;;22.37;34.54;102154.16;12251345;19;19915;-89
2022/08/09 01:28:06;;;;;;;;;;;24.20;33.40;;;22.46;34.57;102164.88;12248726;19;19992;-89
2022/08/09 01:32:09;;;;;;;;;;;24.20;33.40;;;22.45;34.67;102155.22;12242441;19;20353;-89
2022/08/09 01:36:16;;;;;;;;;;;24.50;33.60;;;22.51;34.72;102164.50;12247960;19;19911;-89
2022/08/09 01:40:18;;;;;;;;;;;24.30;33.50;;;22.21;34.53;102119.97;12245997;19;19915;-89
2022/08/09 01:44:21;;;;;;;;;;;24.30;33.50;;;22.21;34.50;102115.50;12248176;19;19911;-89
2022/08/09 01:48:23;;;;;;;;;;;24.30;33.50;;;22.47;34.56;102152.44;12244460;19;19911;-89
2022/08/09 01:52:25;;;;;;;;;;;24.20;33.50;;;22.48;34.52;102160.28;12244473;19;19919;-89
2022/08/09 01:56:27;;;;;;;;;;;24.30;33.60;;;22.42;34.91;102138.66;12247831;19;19910;-88
2022/08/09 02:00:30;;;;;;;;;;;24.30;33.60;;;22.43;34.97;102145.66;12244908;19;19915;-89
2022/08/09 02:04:32;;;;;;;;;;;24.30;33.60;;;22.50;34.80;102169.00;12247391;19;19938;-89
2022/08/09 02:08:39;;;;;;;;;;;24.30;33.50;;;22.18;34.89;102114.88;12247845;19;19923;-89
2022/08/09 02:12:42;;;;;;;;;;;24.30;33.60;;;22.45;35.03;102163.19;12241225;19;19914;-89
2022/08/09 02:16:45;;;;;;;;;;;24.20;33.70;;;22.52;34.91;102164.41;12247218;19;19919;-89
2022/08/09 02:20:50;;;;;;;;;;;24.30;33.70;;;22.53;35.07;102165.22;12242795;19;19937;-89
2022/08/09 02:24:55;;;;;;;;;;;24.30;33.70;;;22.27;35.03;102116.81;12245120;19;19919;-89
2022/08/09 02:29:00;;;;;;;;;;;24.60;33.90;;;22.57;34.69;102169.31;12244732;19;20653;-89
2022/08/09 02:33:03;;;;;;;;;;;24.50;33.80;;;22.52;34.78;102163.53;12244752;19;19938;-89
2022/08/09 02:37:10;;;;;;;;;;;24.40;33.80;;;22.64;34.80;102177.66;12244578;19;20276;-89
2022/08/09 02:41:16;;;;;;;;;;;24.30;33.80;;;22.53;35.03;102157.25;12254131;19;19954;-89
2022/08/09 02:45:31;;;;;;;;;;;24.30;33.80;;;22.57;34.85;102168.47;12261668;19;19926;-89
2022/08/09 02:49:35;;;;;;;;;;;24.30;33.80;;;22.57;35.23;102174.63;12260812;19;19918;-89
2022/08/09 02:53:43;;;;;;;;;;;24.40;33.90;;;22.55;35.35;102181.94;12261794;19;20003;-89
2022/08/09 02:57:46;;;;;;;;;;;24.30;33.80;;;22.47;35.16;102176.41;12260144;19;19907;-88
2022/08/09 03:01:48;;;;;;;;;;;24.30;33.90;;;22.30;35.36;102145.81;12253725;19;20347;-89
2022/08/09 03:05:52;;;;;;;;;;;24.20;33.90;;;22.37;35.17;102165.66;12256916;19;20356;-89
2022/08/09 03:09:54;;;;;;;;;;;24.20;34.00;;;22.44;35.42;102180.16;12252435;19;19970;-88
2022/08/09 03:13:56;;;;;;;;;;;24.20;34.00;;;21.95;35.40;102106.94;12256309;19;19914;-89
2022/08/09 03:17:59;;;;;;;;;;;24.20;34.00;;;22.05;35.40;102125.69;12256171;19;19948;-89
2022/08/09 03:22:01;;;;;;;;;;;24.20;34.00;;;22.13;35.39;102135.69;12249521;19;19930;-89
2022/08/09 03:26:03;;;;;;;;;;;24.10;34.00;;;22.09;35.38;102135.97;12255976;19;19925;-89
2022/08/09 03:30:05;;;;;;;;;;;24.10;34.00;;;21.92;35.76;102124.97;12250043;19;19948;-89
2022/08/09 03:34:07;;;;;;;;;;;24.10;34.00;;;22.28;35.30;102182.38;12254411;19;20249;-89
2022/08/09 03:38:09;;;;;;;;;;;24.10;34.00;;;22.13;35.25;102163.16;12255518;19;19940;-89
2022/08/09 03:42:11;;;;;;;;;;;24.00;34.10;;;22.25;35.49;102190.59;12248745;19;19911;-88
2022/08/09 03:46:12;;;;;;;;;;;24.00;34.10;;;22.06;35.50;102165.47;12253156;19;19915;-89
2022/08/09 03:50:15;;;;;;;;;;;24.30;34.30;;;22.08;35.39;102163.50;12247340;19;19922;-89
2022/08/09 03:54:17;;;;;;;;;;;24.00;34.20;;;21.87;35.68;102136.00;12254602;19;20475;-89
2022/08/09 03:58:19;;;;;;;;;;;24.00;34.20;;;21.95;35.52;102152.16;12252647;19;19940;-89
2022/08/09 04:02:22;;;;;;;;;;;24.00;34.20;;;21.84;35.71;102133.59;12250322;19;19919;-89
2022/08/09 04:06:24;;;;;;;;;;;24.00;34.20;;;21.89;35.60;102142.03;12252885;19;19915;-89
2022/08/09 04:10:25;;;;;;;;;;;24.00;34.30;;;22.26;35.68;102208.28;12250819;19;20374;-89
2022/08/09 04:14:27;;;;;;;;;;;24.00;34.20;;;22.13;35.96;102189.75;12253036;19;19912;-89
2022/08/09 04:18:29;;;;;;;;;;;24.00;34.40;;;21.83;35.92;102147.84;12250987;19;19914;-89
2022/08/09 04:22:30;;;;;;;;;;;24.00;34.30;;;21.98;35.80;102181.22;12249428;19;19922;-89
2022/08/09 04:26:32;;;;;;;;;;;24.00;34.40;;;21.58;35.73;102125.88;12251691;19;20336;-89
2022/08/09 04:30:34;;;;;;;;;;;24.00;34.30;;;21.89;35.94;102189.91;12251125;19;19925;-89
2022/08/09 04:34:35;;;;;;;;;;;24.20;34.50;;;21.64;35.79;102151.97;12247235;19;19923;-89
2022/08/09 04:38:37;;;;;;;;;;;23.90;34.40;;;21.70;36.16;102157.78;12247914;19;19955;-89
2022/08/09 04:42:38;;;;;;;;;;;23.90;34.30;;;21.67;36.07;102166.00;12244734;19;19919;-89
2022/08/09 04:46:40;;;;;;;;;;;24.00;34.50;;;21.97;35.84;102213.25;12248000;19;19921;-89
2022/08/09 04:50:43;;;;;;;;;;;23.60;34.40;;;21.99;36.08;102227.28;12245364;19;19915;-89
2022/08/09 04:54:46;;;;;;;;;;;23.80;34.50;;;21.99;36.11;102228.13;12247698;19;19946;-89
2022/08/09 04:58:48;;;;;;;;;;;23.80;34.50;;;21.60;36.49;102169.16;12247578;19;19926;-89
2022/08/09 05:02:50;;;;;;;;;;;23.80;34.40;;;21.99;36.03;102238.75;12241577;19;20030;-89
2022/08/09 05:06:51;;;;;;;;;;;23.80;34.50;;;21.94;36.25;102235.63;12245027;19;20262;-89
2022/08/09 05:10:53;;;;;;;;;;;23.80;34.50;;;21.99;36.06;102251.22;12244195;19;20280;-89
2022/08/09 05:14:55;;;;;;;;;;;23.70;34.40;;;21.99;36.23;102244.09;12246145;19;19911;-89
2022/08/09 05:18:56;;;;;;;;;;;23.70;34.60;;;21.66;36.24;102202.41;12243888;19;20103;-90
2022/08/09 05:22:58;;;;;;;;;;;23.70;34.50;;;21.97;36.15;102247.81;12241380;19;19911;-89
2022/08/09 05:27:00;;;;;;;;;;;23.70;34.60;;;21.60;36.33;102185.13;12244615;19;19961;-88
2022/08/09 05:31:02;;;;;;;;;;;23.70;34.80;;;21.84;36.24;102237.31;12242745;19;19974;-89
2022/08/09 05:35:04;;;;;;;;;;;23.70;34.80;;;21.92;36.37;102244.69;12244683;19;19915;-88
2022/08/09 05:39:06;;;;;;;;;;;23.70;34.80;;;21.99;36.54;102257.38;12247100;19;19907;-92
2022/08/09 05:43:08;;;;;;;;;;;23.70;34.70;;;21.70;36.43;102213.63;12248135;19;19922;-92
2022/08/09 05:47:09;;;;;;;;;;;23.70;34.80;;;21.65;36.36;102208.66;12246020;19;19927;-91
2022/08/09 05:51:11;;;;;;;;;;;23.70;34.80;;;21.86;36.49;102246.03;12252209;19;20457;-91
2022/08/09 05:55:12;;;;;;;;;;;23.80;34.90;;;21.69;36.62;102230.56;12252878;19;19919;-89
2022/08/09 05:59:14;;;;;;;;;;;23.70;34.70;;;21.78;36.93;102245.78;12256737;19;20351;-90
2022/08/09 06:03:16;;;;;;;;;;;23.80;35.00;;;21.94;37.06;102270.19;12252745;19;19919;-89
2022/08/09 06:07:18;;;;;;;;;;;23.70;35.00;;;22.04;36.48;102284.47;12253882;19;19918;-92
2022/08/09 06:11:20;;;;;;;;;;;23.80;35.20;;;21.51;36.67;102185.81;12246845;19;19918;-90
2022/08/09 06:15:21;;;;;;;;;;;23.90;35.40;;;22.16;37.02;102281.81;12260818;19;19937;-89
2022/08/09 06:19:22;;;;;;;;;;;23.80;35.00;;;21.86;36.78;102216.75;12260735;19;19914;-90
2022/08/09 06:23:26;;;;;;;;;;;24.00;35.30;;;21.84;37.11;102219.53;12259978;19;19953;-90
2022/08/09 06:27:27;;;;;;;;;;;24.00;35.10;;;22.09;36.99;102250.38;12259588;19;20034;-89
2022/08/09 06:31:29;;;;;;;;;;;24.00;35.30;;;22.20;36.98;102262.84;12255940;19;19911;-90
2022/08/09 06:35:30;;;;;;;;;;;24.30;35.40;;;22.12;37.08;102232.47;12257763;19;20313;-89
2022/08/09 06:39:32;;;;;;;;;;;24.10;36.30;;;22.45;36.75;102272.34;12257432;19;19923;-90
2022/08/09 06:43:35;;;;;;;;;;;24.20;35.50;;;22.50;36.79;102270.16;12259230;19;19915;-90
2022/08/09 06:47:36;;;;;;;;;;;24.30;35.60;;;22.82;36.81;102308.44;12259693;19;19922;-90
2022/08/09 06:51:38;;;;;;;;;;;24.40;35.40;;;22.53;36.89;102248.59;12257364;19;19915;-92
2022/08/09 06:55:40;;;;;;;;;;;24.70;35.30;;;22.50;36.96;102238.22;12263617;19;19926;-91
2022/08/09 06:59:41;;;;;;;;;;;24.60;35.30;;;23.01;36.77;102310.47;12266819;19;19923;-89
2022/08/09 07:03:43;;;;;;;;;;;24.60;35.20;;;22.75;37.09;102266.31;12254833;19;19922;-87
2022/08/09 07:07:45;;;;;;;;;;;24.70;35.50;;;23.01;37.03;102308.66;12251877;19;19978;-87
2022/08/09 07:11:46;;;;;;;;;;;24.90;35.30;;;22.54;36.86;102226.31;12247070;19;20355;-86
2022/08/09 07:15:48;;;;;;;;;;;24.70;35.40;;;22.99;36.70;102296.44;12250820;19;20506;-86
2022/08/09 07:19:49;;;;;;;;;;;24.80;35.00;;;23.09;36.93;102297.38;12248679;19;19926;-87
2022/08/09 07:23:51;;;;;;;;;;;25.20;35.20;;;23.29;37.08;102320.53;12250179;19;19922;-88
2022/08/09 07:27:52;;;;;;;;;;;25.10;35.30;;;23.32;37.00;102314.09;12250828;19;19919;-86
2022/08/09 07:31:54;;;;;;;;;;;25.00;35.30;;;23.43;37.07;102322.03;12246828;19;19954;-86
2022/08/09 07:35:56;;;;;;;;;;;25.10;35.50;;;23.37;36.99;102317.22;12251872;19;20258;-86
2022/08/09 07:39:57;;;;;;;;;;;25.10;35.50;;;23.59;36.85;102321.56;12247176;19;19956;-87
2022/08/09 07:43:59;;;;;;;;;;;25.20;35.30;;;23.68;37.16;102315.44;12248889;19;20257;-86
2022/08/09 07:48:00;;;;;;;;;;;25.40;35.20;;;23.89;37.33;102333.28;12249591;19;19915;-87
2022/08/09 07:52:02;;;;;;;;;;;25.40;35.20;;;24.05;37.04;102333.63;12246272;19;19923;-86
2022/08/09 07:56:03;;;;;;;;;;;25.60;35.50;;;24.18;36.96;102318.25;12248346;19;19914;-86
2022/08/09 08:00:06;;;;;;;;;;;25.70;35.60;;;24.41;36.98;102312.69;12246187;19;19941;-87
2022/08/09 08:04:13;;;;;;;;;;;25.90;35.40;;;24.64;36.88;102329.38;12246708;19;19911;-87
2022/08/09 08:08:14;;;;;;;;;;;26.10;35.20;;;24.73;36.72;102329.41;12248277;19;19918;-86
2022/08/09 08:12:16;;;;;;;;;;;26.20;35.50;;;24.85;36.87;102327.44;12244582;19;19986;-86
2022/08/09 08:16:17;;;;;;;;;;;26.40;35.20;;;24.95;36.79;102319.41;12247142;19;20329;-86
2022/08/09 08:20:20;;;;;;;;;;;26.50;35.10;;;24.90;36.55;102286.94;12243638;19;19923;-86
2022/08/09 08:24:22;;;;;;;;;;;26.60;34.90;;;25.15;36.62;102296.25;12245143;19;20245;-86
2022/08/09 08:28:23;;;;;;;;;;;26.90;35.10;;;25.46;36.51;102330.81;12249155;19;19995;-87
2022/08/09 08:32:25;;;;;;;;;;;26.90;34.80;;;25.55;36.45;102320.13;12240949;19;20242;-86
2022/08/09 08:36:26;;;;;;;;;;;27.00;34.80;;;25.68;36.70;102311.78;12242212;19;20245;-86
2022/08/09 08:40:28;;;;;;;;;;;27.20;34.90;;;25.89;36.20;102324.13;12249131;19;19919;-85
2022/08/09 08:44:33;;;;;;;;;;;27.30;34.60;;;25.97;36.15;102316.22;12248394;19;19919;-87
2022/08/09 08:48:34;;;;;;;;;;;27.50;34.70;;;26.24;36.15;102334.13;12248508;19;19922;-87
2022/08/09 08:52:36;;;;;;;;;;;27.60;34.30;;;26.37;36.17;102328.44;12246130;19;19931;-87
2022/08/09 08:56:39;;;;;;;;;;;27.80;34.60;;;26.52;36.05;102318.06;12247301;19;19933;-86
2022/08/09 09:00:41;;;;;;;;;;;28.20;34.60;;;26.72;35.86;102316.97;12246067;19;19927;-86
2022/08/09 09:04:44;;;;;;;;;;;28.10;34.40;;;26.90;35.85;102315.13;12246967;19;19919;-87
2022/08/09 09:08:47;;;;;;;;;;;28.30;34.40;;;27.22;35.72;102347.78;12250829;19;19918;-86
2022/08/09 09:12:49;;;;;;;;;;;28.60;34.40;;;27.19;35.74;102314.06;12245157;19;19982;-85
2022/08/09 09:16:50;;;;;;;;;;;28.70;34.20;;;27.36;35.56;102318.56;12248134;19;19914;-87
2022/08/09 09:20:52;;;;;;;;;;;28.90;34.00;;;27.47;35.33;102319.31;12245319;19;19926;-87
2022/08/09 09:24:55;;;;;;;;;;;29.00;33.90;;;27.71;35.85;102342.78;12245483;19;20242;-88
2022/08/09 09:28:56;;;;;;;;;;;29.10;33.60;;;27.71;35.52;102321.31;12244652;19;19933;-86
2022/08/09 09:33:06;;;;;;;;;;;29.20;33.70;;;27.88;35.42;102343.75;12242608;19;19915;-88
2022/08/09 09:37:07;;;;;;;;;;;29.30;33.50;;;27.80;35.17;102310.47;12245594;19;20383;-87
2022/08/09 09:41:09;;;;;;;;;;;29.40;33.40;;;27.88;35.19;102316.91;12243312;19;19915;-87
2022/08/09 09:45:11;;;;;;;;;;;29.50;33.40;;;27.99;35.03;102320.16;12245463;19;20290;-88
2022/08/09 09:49:17;;;;;;;;;;;29.50;33.20;;;27.98;34.99;102301.53;12253467;19;19983;-89
2022/08/09 09:53:22;;;;;;;;;;;29.60;33.10;;;27.90;35.06;102266.56;12256200;19;19954;-91
2022/08/09 09:57:23;;;;;;;;;;;29.70;33.40;;;28.33;34.90;102296.97;12256605;19;19926;-88
2022/08/09 10:01:26;;;;;;;;;;;29.80;33.60;;;28.46;34.77;102294.63;12259003;19;19919;-88
2022/08/09 10:05:27;;;;;;;;;;;30.00;33.40;;;28.31;34.92;102250.59;12261166;19;20494;-87
2022/08/09 10:09:49;;;;;;;;;;;30.10;33.70;;;28.86;34.76;102314.53;12258739;19;19970;-88
2022/08/09 10:13:52;;;;;;;;;;;30.20;33.30;;;28.79;34.58;102281.28;12260785;19;19921;-87
2022/08/09 10:17:54;;;;;;;;;;;30.40;31.80;;;28.76;34.28;102281.59;12262136;19;19926;-87
2022/08/09 10:21:56;;;;;;;;;;;30.40;33.00;;;28.55;34.07;102252.50;12254035;19;19929;-87
2022/08/09 10:25:57;;;;;;;;;;;30.50;32.30;;;28.72;34.28;102273.03;12255802;19;19914;-86
2022/08/09 10:30:01;;;;;;;;;;;30.50;32.90;;;28.86;34.36;102284.97;12254525;19;19955;-88
2022/08/09 10:34:03;;;;;;;;;;;30.50;33.10;;;28.66;34.38;102219.91;12256233;19;19915;-88
2022/08/09 10:38:05;;;;;;;;;;;30.60;33.00;;;29.18;34.11;102292.22;12254895;19;19919;-87
2022/08/09 10:42:07;;;;;;;;;;;30.60;32.70;;;29.00;34.19;102235.88;12250106;19;19944;-86
2022/08/09 10:46:41;;;;;;;;;;;30.80;33.00;;;29.18;33.89;102229.50;12254386;19;19978;-88
2022/08/09 10:55:23;;;;;;;;;;;31.00;33.10;;;29.76;33.69;102266.91;12253221;19;19931;-86
2022/08/09 10:59:26;;;;;;;;;;;31.20;32.90;;;30.04;33.72;102284.47;12251715;19;19922;-86
2022/08/09 11:03:28;;;;;;;;;;;31.40;32.60;;;29.98;33.72;102267.97;12254476;19;19914;-86
2022/08/09 11:07:30;;;;;;;;;;;31.40;32.60;;;30.07;33.67;102273.34;12254799;19;19923;-85
2022/08/09 11:11:57;;;;;;;;;;;31.50;32.60;;;30.13;33.53;102281.53;12254055;19;19911;-87
2022/08/09 11:16:44;;;;;;;;;;;31.60;32.30;;;30.15;33.24;102276.81;12257576;19;19932;-87
2022/08/09 11:20:47;;;;;;;;;;;31.70;32.50;;;30.19;33.12;102282.69;12253092;19;20351;-89
2022/08/09 11:25:02;;;;;;;;;;;31.70;31.90;;;30.29;33.05;102277.94;12255712;19;19923;-90
2022/08/09 11:29:04;;;;;;;;;;;31.70;32.30;;;30.27;33.28;102254.88;12253908;19;19911;-89
2022/08/09 11:33:17;;;;;;;;;;;31.80;32.60;;;30.49;33.31;102272.97;12255781;19;19922;-90
2022/08/09 11:37:26;;;;;;;;;;;31.80;32.50;;;30.56;33.19;102268.50;12255207;19;19978;-88
2022/08/09 11:41:29;;;;;;;;;;;31.90;30.20;;;30.56;32.77;102273.91;12250843;19;20262;-88
2022/08/09 11:45:41;;;;;;;;;;;32.00;32.40;;;30.37;32.94;102242.84;12255285;19;19915;-87
2022/08/09 11:50:03;;;;;;;;;;;32.10;31.60;;;30.51;32.60;102253.88;12245174;19;19919;-87
2022/08/09 11:54:18;;;;;;;;;;;32.10;32.00;;;30.23;32.67;102202.38;12250945;19;19932;-87
2022/08/09 11:58:19;;;;;;;;;;;32.10;31.80;;;30.72;32.40;102278.34;12251213;19;19942;-87
2022/08/09 12:02:20;;;;;;;;;;;32.20;31.30;;;30.70;32.38;102268.75;12250815;19;19907;-87
2022/08/09 12:06:25;;;;;;;;;;;32.20;31.00;;;30.65;32.19;102247.72;12253117;19;19915;-88
2022/08/09 12:10:28;;;;;;;;;;;32.30;30.80;;;30.59;32.28;102230.38;12247210;19;19953;-88
2022/08/09 12:14:33;;;;;;;;;;;32.30;31.40;;;30.39;32.46;102195.00;12251858;19;19933;-88
2022/08/09 12:18:36;;;;;;;;;;;32.30;31.90;;;30.77;32.39;102248.97;12249286;19;19923;-88
2022/08/09 12:22:37;;;;;;;;;;;32.30;31.90;;;30.83;32.11;102256.34;12246219;19;20332;-88
2022/08/09 12:26:44;;;;;;;;;;;32.40;31.30;;;30.45;32.09;102222.25;12250520;19;19915;-87
2022/08/09 12:30:45;;;;;;;;;;;32.30;29.50;;;30.48;31.96;102247.00;12247897;19;19915;-86
2022/08/09 12:34:47;;;;;;;;;;;32.20;30.90;;;30.46;31.93;102250.88;12249709;19;20325;-87
2022/08/09 12:38:49;;;;;;;;;;;32.20;31.20;;;30.38;32.13;102251.78;12249975;19;19923;-87
2022/08/09 12:42:51;;;;;;;;;;;32.10;31.10;;;30.28;31.92;102233.16;12243881;19;19919;-87
2022/08/09 12:46:53;;;;;;;;;;;32.00;31.50;;;30.40;31.75;102247.88;12250179;19;19922;-87
2022/08/09 12:50:55;;;;;;;;;;;32.00;31.40;;;30.37;32.02;102239.31;12247478;19;19934;-87
2022/08/09 12:54:57;;;;;;;;;;;32.00;31.20;;;30.20;31.80;102215.13;12250958;19;20631;-86
2022/08/09 12:59:06;;;;;;;;;;;32.00;31.50;;;30.02;32.05;102193.03;12249002;19;19930;-87
2022/08/09 13:03:08;;;;;;;;;;;31.90;31.50;;;30.29;31.93;102240.22;12245463;19;19911;-87
2022/08/09 13:07:15;;;;;;;;;;;31.90;31.20;;;30.20;31.98;102225.91;12244836;19;19919;-87
2022/08/09 13:11:16;;;;;;;;;;;31.90;31.20;;;30.20;31.84;102206.22;12246289;19;19927;-87
2022/08/09 13:15:18;;;;;;;;;;;31.80;31.40;;;30.23;31.85;102208.59;12247989;19;19915;-87
2022/08/09 13:19:26;;;;;;;;;;;31.80;31.20;;;30.34;31.86;102224.34;12247265;19;20416;-87
2022/08/09 13:23:39;;;;;;;;;;;31.90;31.20;;;30.28;31.78;102221.53;12242870;19;19933;-87
2022/08/09 13:27:41;;;;;;;;;;;31.90;31.50;;;30.35;31.56;102226.03;12244653;19;19930;-86
2022/08/09 13:32:04;;;;;;;;;;;31.90;31.60;;;30.54;31.43;102234.66;12243100;19;19950;-86
2022/08/09 13:36:06;;;;;;;;;;;31.90;31.90;;;30.33;31.44;102187.63;12247233;19;20939;-86
2022/08/09 13:40:09;;;;;;;;;;;32.00;31.30;;;30.60;31.40;102231.25;12243038;19;19919;-86
2022/08/09 13:44:10;;;;;;;;;;;32.00;31.10;;;30.61;31.19;102232.91;12243424;19;19934;-85
2022/08/09 13:48:11;;;;;;;;;;;32.10;31.10;;;30.63;31.17;102226.31;12246705;19;19915;-86
2022/08/09 13:52:13;;;;;;;;;;;32.10;31.20;;;30.31;31.16;102173.50;12243526;19;20625;-86
2022/08/09 13:56:14;;;;;;;;;;;32.10;31.30;;;30.63;31.30;102229.03;12245903;19;19915;-85
2022/08/09 14:00:17;;;;;;;;;;;32.10;31.20;;;30.67;31.32;102226.78;12247522;19;19927;-86
2022/08/09 14:04:19;;;;;;;;;;;32.10;31.10;;;30.73;30.94;102223.41;12248773;19;19919;-86
2022/08/09 14:08:20;;;;;;;;;;;32.20;31.20;;;30.62;31.06;102208.47;12246452;19;19918;-86
2022/08/09 14:12:22;;;;;;;;;;;32.10;31.20;;;30.64;30.79;102206.41;12243805;19;20369;-86
2022/08/09 14:16:23;;;;;;;;;;;32.10;30.90;;;30.73;31.25;102214.44;12246098;19;19915;-85
2022/08/09 14:20:29;;;;;;;;;;;32.10;31.10;;;30.74;30.83;102208.03;12245731;19;19907;-86
2022/08/09 14:24:30;;;;;;;;;;;32.20;31.00;;;30.64;31.18;102200.19;12247555;19;19966;-85
2022/08/09 14:28:32;;;;;;;;;;;32.20;30.90;;;30.53;30.80;102204.16;12248040;19;19926;-86
2022/08/09 14:32:33;;;;;;;;;;;32.10;30.90;;;30.54;31.00;102205.84;12243306;19;20341;-86
2022/08/09 14:36:35;;;;;;;;;;;32.10;30.80;;;30.59;30.71;102211.50;12258546;19;19914;-86
2022/08/09 14:40:37;;;;;;;;;;;32.00;30.30;;;30.38;31.12;102187.06;12256444;19;19910;-86
2022/08/09 14:44:38;;;;;;;;;;;32.10;30.60;;;30.41;30.91;102194.84;12257328;19;19918;-85
2022/08/09 14:53:12;;;;;;;;;;;32.00;30.90;;;30.23;30.76;102143.91;12254512;19;19919;-86
2022/08/09 14:57:14;;;;;;;;;;;32.10;31.10;;;30.35;30.94;102166.75;12253437;19;19928;-86
2022/08/09 15:01:15;;;;;;;;;;;32.10;30.90;;;30.60;30.93;102204.28;12254105;19;19930;-86
2022/08/09 15:05:16;;;;;;;;;;;32.10;30.40;;;30.27;30.77;102156.00;12257798;19;19911;-87
2022/08/09 15:09:18;;;;;;;;;;;32.10;29.50;;;30.18;30.57;102157.88;12255605;19;19926;-86
2022/08/09 15:13:20;;;;;;;;;;;32.00;30.50;;;30.36;30.45;102187.28;12255478;19;19918;-87
2022/08/09 15:17:21;;;;;;;;;;;32.00;30.50;;;30.15;30.74;102152.84;12247952;19;19947;-86
2022/08/09 15:21:23;;;;;;;;;;;32.00;30.80;;;30.05;30.31;102143.31;12252972;19;19919;-86
2022/08/09 15:25:26;;;;;;;;;;;32.00;30.40;;;30.05;30.62;102135.25;12255735;19;20250;-87
2022/08/09 15:29:28;;;;;;;;;;;31.90;30.70;;;30.16;30.74;102151.84;12254949;19;19918;-86
2022/08/09 15:33:30;;;;;;;;;;;32.00;30.80;;;30.16;30.40;102148.28;12255479;19;20242;-87
2022/08/09 15:37:35;;;;;;;;;;;32.00;30.90;;;29.96;30.68;102121.81;12255481;19;20251;-87
2022/08/09 15:41:37;;;;;;;;;;;31.90;30.80;;;30.10;30.67;102143.63;12252000;19;20546;-87
2022/08/09 15:45:40;;;;;;;;;;;31.90;30.80;;;30.45;30.67;102200.69;12256462;19;20317;-86
2022/08/09 15:49:41;;;;;;;;;;;31.90;30.70;;;30.40;30.55;102207.44;12254345;19;19918;-86
2022/08/09 15:53:42;;;;;;;;;;;31.90;30.50;;;29.94;30.35;102125.72;12256490;19;19919;-87
2022/08/09 15:57:45;;;;;;;;;;;31.80;30.60;;;29.75;30.27;102105.47;12251947;19;19911;-86
2022/08/09 16:01:47;;;;;;;;;;;31.80;30.60;;;29.91;30.45;102129.59;12250766;19;19917;-86
2022/08/09 16:05:48;;;;;;;;;;;31.80;30.60;;;29.96;30.70;102143.38;12269898;19;19915;-86
2022/08/09 16:09:50;;;;;;;;;;;31.80;30.60;;;30.05;30.19;102156.78;12265790;19;19936;-86
2022/08/09 16:13:51;;;;;;;;;;;31.70;30.60;;;30.19;30.31;102174.88;12268032;19;19915;-87
2022/08/09 16:17:53;;;;;;;;;;;31.70;30.60;;;30.19;30.30;102177.56;12265984;19;19915;-86
2022/08/09 16:21:54;;;;;;;;;;;31.60;30.60;;;30.15;30.62;102184.34;12259969;19;19915;-86
2022/08/09 16:25:56;;;;;;;;;;;31.60;30.60;;;30.04;30.60;102164.06;12250418;19;19918;-86
2022/08/09 16:29:59;;;;;;;;;;;31.60;30.60;;;29.81;30.30;102130.84;12256260;19;19911;-86
2022/08/09 16:34:01;;;;;;;;;;;31.60;30.60;;;29.74;30.20;102131.56;12258379;19;19918;-86
2022/08/09 16:38:02;;;;;;;;;;;31.50;30.50;;;29.74;30.23;102133.44;12256834;19;19915;-86
2022/08/09 16:42:04;;;;;;;;;;;31.50;30.60;;;29.99;30.31;102188.81;12251354;19;19922;-86
2022/08/09 16:46:06;;;;;;;;;;;31.40;30.40;;;29.88;29.99;102181.16;12252709;19;20350;-86
2022/08/09 16:50:12;;;;;;;;;;;31.40;30.40;;;29.40;30.17;102115.72;12250901;19;20193;-86
2022/08/09 16:54:13;;;;;;;;;;;31.40;29.90;;;29.65;30.08;102177.56;12254128;19;19944;-86
2022/08/09 16:58:15;;;;;;;;;;;31.30;30.40;;;29.30;30.37;102125.84;12255125;19;19970;-87
2022/08/09 17:02:17;;;;;;;;;;;31.20;30.50;;;29.33;30.25;102138.97;12248934;19;19937;-87
2022/08/09 17:06:19;;;;;;;;;;;31.20;31.10;;;29.41;30.59;102170.38;12252024;19;19915;-86
2022/08/09 17:10:20;;;;;;;;;;;31.00;30.60;;;29.49;30.40;102187.38;12251188;19;19921;-86
2022/08/09 17:14:22;;;;;;;;;;;31.00;30.60;;;29.40;30.48;102183.00;12252965;19;19919;-85
2022/08/09 17:18:23;;;;;;;;;;;30.90;30.60;;;29.26;30.12;102181.88;12252073;19;19919;-86
2022/08/09 17:22:25;;;;;;;;;;;30.90;30.50;;;29.03;30.53;102170.97;12248524;19;20277;-85
2022/08/09 17:26:27;;;;;;;;;;;30.80;30.60;;;29.14;30.72;102199.41;12251221;19;19940;-85
2022/08/09 17:30:28;;;;;;;;;;;30.80;30.70;;;28.68;30.63;102124.66;12251128;19;19926;-85
2022/08/09 17:34:30;;;;;;;;;;;30.70;30.80;;;29.04;30.50;102190.69;12251361;19;19938;-86
2022/08/09 17:38:32;;;;;;;;;;;30.60;30.80;;;28.99;30.46;102193.84;12251935;19;19917;-86
2022/08/09 17:42:33;;;;;;;;;;;30.60;30.90;;;28.94;30.26;102201.56;12245476;19;19957;-86
2022/08/09 17:46:35;;;;;;;;;;;30.50;30.80;;;28.87;30.70;102206.81;12251358;19;19922;-85
2022/08/09 17:50:36;;;;;;;;;;;30.50;30.90;;;28.69;31.05;102198.06;12248483;19;19926;-86
2022/08/09 17:54:38;;;;;;;;;;;30.40;30.90;;;28.45;30.51;102166.66;12250122;19;19910;-86
2022/08/09 17:58:40;;;;;;;;;;;30.40;31.00;;;28.67;30.61;102217.03;12250296;19;19925;-86
2022/08/09 18:02:43;;;;;;;;;;;30.30;30.90;;;28.46;30.34;102214.00;12248155;19;19938;-86
2022/08/09 18:06:45;;;;;;;;;;;30.20;30.80;;;28.34;30.46;102226.06;12251857;19;19919;-85
2022/08/09 18:10:46;;;;;;;;;;;30.00;30.70;;;28.06;30.79;102207.53;12257899;19;20509;-86
2022/08/09 18:14:49;;;;;;;;;;;29.90;30.80;;;27.95;31.04;102222.13;12261912;19;20283;-86
2022/08/09 18:18:51;;;;;;;;;;;29.80;30.90;;;27.78;30.61;102201.53;12263295;19;19911;-85
2022/08/09 18:22:53;;;;;;;;;;;29.60;30.90;;;27.53;30.73;102179.94;12253529;19;19946;-85